PWSweather.com
Personal Weather Stations
Station Observations
ABQWX
Albuquerque, NM 87110

Albuquerque, NM 87110

Lat: 35.1305, Lon: -106.58571

Elevation: 5210

Station Type: LaCrosse

http://www.albuquerqueweather.info/

High Low Average
Temperature 88.0°F31.1°F 58.3°F14.6°F 72.4°F22.4°F
Dew Point 43.4°F6.3°F 28.6°F-1.9°F 36.4°F2.4°F
Winds 10.9 mph S17.5 mph S 0.8 mph 1.3 mph 5.4 mph 8.7 mph
Wind Gusts 20.1 mph32.3 mph 1.8 mph2.9 mph 9.6 mph15.4 mph
Humidity 49% 12% 30%
Pressure 30.15 in1021.00 in 29.88 in1011.90 in -
Precipitation 0.00 in0.00 in - -
Hour Temp Dew Point Humidity Winds Wind Gusts Pressure Precip Precip Rate Daily Precip Total
12:00 AM 67.3°F19.6°C 37.9°F3.3°C 34% 7.5 mph E12.1 kmh E 13.4 mph21.6 kmh 30.15 in1021.0 mb 0.00 in0.0 mm 0.00 in/hr0.0 mm/hr 0.00 in0.0 mm
12:30 AM 66.9°F19.4°C 37.6°F3.1°C 34% 9.9 mph SE15.9 kmh SE 12.8 mph20.6 kmh 30.15 in1021.0 mb 0.00 in0.0 mm 0.00 in/hr0.0 mm/hr 0.00 in0.0 mm
01:00 AM 66.9°F19.4°C 37.6°F3.1°C 34% 9.6 mph ESE15.4 kmh ESE 18.3 mph29.5 kmh 30.15 in1021.0 mb 0.00 in0.0 mm 0.00 in/hr0.0 mm/hr 0.00 in0.0 mm
01:30 AM 66.6°F19.2°C 37.3°F2.9°C 34% 8.2 mph E13.2 kmh E 12.5 mph20.1 kmh 30.14 in1020.7 mb 0.00 in0.0 mm 0.00 in/hr0.0 mm/hr 0.00 in0.0 mm
02:00 AM 65.8°F18.8°C 37.4°F3.0°C 35% 6.0 mph N9.7 kmh N 9.8 mph15.8 kmh 30.15 in1021.0 mb 0.00 in0.0 mm 0.00 in/hr0.0 mm/hr 0.00 in0.0 mm
02:30 AM 62.6°F17.0°C 37.9°F3.3°C 40% 3.2 mph NW5.1 kmh NW 5.1 mph8.2 kmh 30.15 in1021.0 mb 0.00 in0.0 mm 0.00 in/hr0.0 mm/hr 0.00 in0.0 mm
03:00 AM 61.7°F16.5°C 38.4°F3.6°C 42% 4.8 mph W7.7 kmh W 6.7 mph10.8 kmh 30.14 in1020.7 mb 0.00 in0.0 mm 0.00 in/hr0.0 mm/hr 0.00 in0.0 mm
03:30 AM 61.7°F16.5°C 38.4°F3.6°C 42% 3.0 mph NW4.8 kmh NW 6.0 mph9.7 kmh 30.15 in1021.0 mb 0.00 in0.0 mm 0.00 in/hr0.0 mm/hr 0.00 in0.0 mm
04:00 AM 60.4°F15.8°C 39.0°F3.9°C 45% 2.2 mph NW3.5 kmh NW 8.3 mph13.4 kmh 30.15 in1021.0 mb 0.00 in0.0 mm 0.00 in/hr0.0 mm/hr 0.00 in0.0 mm
04:30 AM 60.3°F15.7°C 38.2°F3.4°C 44% 1.1 mph NNE1.8 kmh NNE 2.5 mph4.0 kmh 30.14 in1020.7 mb 0.00 in0.0 mm 0.00 in/hr0.0 mm/hr 0.00 in0.0 mm
05:00 AM 59.9°F15.5°C 37.9°F3.3°C 44% 3.4 mph ESE5.5 kmh ESE 5.4 mph8.7 kmh 30.13 in1020.3 mb 0.00 in0.0 mm 0.00 in/hr0.0 mm/hr 0.00 in0.0 mm
05:30 AM 59.9°F15.5°C 37.9°F3.3°C 44% 1.0 mph SSE1.6 kmh SSE 1.8 mph2.9 kmh 30.13 in1020.3 mb 0.00 in0.0 mm 0.00 in/hr0.0 mm/hr 0.00 in0.0 mm
06:00 AM 59.4°F15.2°C 40.2°F4.6°C 49% 1.2 mph W1.9 kmh W 2.5 mph4.0 kmh 30.13 in1020.3 mb 0.00 in0.0 mm 0.00 in/hr0.0 mm/hr 0.00 in0.0 mm
06:30 AM 58.6°F14.8°C 39.5°F4.2°C 49% 1.8 mph NW2.9 kmh NW 3.4 mph5.5 kmh 30.14 in1020.7 mb 0.00 in0.0 mm 0.00 in/hr0.0 mm/hr 0.00 in0.0 mm
07:00 AM 58.3°F14.6°C 38.7°F3.7°C 48% 0.8 mph NW1.3 kmh NW 1.8 mph2.9 kmh 30.14 in1020.7 mb 0.00 in0.0 mm 0.00 in/hr0.0 mm/hr 0.00 in0.0 mm
07:30 AM 58.8°F14.9°C 39.2°F4.0°C 48% 0.9 mph W1.4 kmh W 2.2 mph3.5 kmh 30.15 in1021.0 mb 0.00 in0.0 mm 0.00 in/hr0.0 mm/hr 0.00 in0.0 mm
08:00 AM 60.1°F15.6°C 40.3°F4.6°C 48% 1.6 mph WNW2.6 kmh WNW 2.5 mph4.0 kmh 30.15 in1021.0 mb 0.00 in0.0 mm 0.00 in/hr0.0 mm/hr 0.00 in0.0 mm
08:30 AM 60.8°F16.0°C 40.4°F4.7°C 47% 0.9 mph W1.4 kmh W 2.7 mph4.3 kmh 30.14 in1020.7 mb 0.00 in0.0 mm 0.00 in/hr0.0 mm/hr 0.00 in0.0 mm
09:00 AM 64.0°F17.8°C 41.7°F5.4°C 44% 1.6 mph NW2.6 kmh NW 2.9 mph4.7 kmh 30.14 in1020.7 mb 0.00 in0.0 mm 0.00 in/hr0.0 mm/hr 0.00 in0.0 mm
09:30 AM 65.1°F18.4°C 40.8°F4.9°C 41% 1.7 mph NW2.7 kmh NW 2.9 mph4.7 kmh 30.14 in1020.7 mb 0.00 in0.0 mm 0.00 in/hr0.0 mm/hr 0.00 in0.0 mm
10:00 AM 68.9°F20.5°C 41.5°F5.3°C 37% 2.7 mph NW4.3 kmh NW 4.7 mph7.6 kmh 30.13 in1020.3 mb 0.00 in0.0 mm 0.00 in/hr0.0 mm/hr 0.00 in0.0 mm
10:30 AM 73.4°F23.0°C 42.5°F5.8°C 33% 2.2 mph SW3.5 kmh SW 6.0 mph9.7 kmh 30.13 in1020.3 mb 0.00 in0.0 mm 0.00 in/hr0.0 mm/hr 0.00 in0.0 mm
11:00 AM 78.3°F25.7°C 43.4°F6.3°C 29% 4.9 mph SSW7.9 kmh SSW 7.2 mph11.6 kmh 30.12 in1020.0 mb 0.00 in0.0 mm 0.00 in/hr0.0 mm/hr 0.00 in0.0 mm
11:30 AM 81.0°F27.2°C 40.8°F4.9°C 24% 6.7 mph SSW10.8 kmh SSW 10.5 mph16.9 kmh 30.10 in1019.3 mb 0.00 in0.0 mm 0.00 in/hr0.0 mm/hr 0.00 in0.0 mm
12:00 PM 82.9°F28.3°C 39.0°F3.9°C 21% 8.9 mph S14.3 kmh S 16.3 mph26.2 kmh 30.08 in1018.6 mb 0.00 in0.0 mm 0.00 in/hr0.0 mm/hr 0.00 in0.0 mm
12:30 PM 84.9°F29.4°C 36.7°F2.6°C 18% 7.9 mph S12.7 kmh S 12.8 mph20.6 kmh 30.06 in1017.9 mb 0.00 in0.0 mm 0.00 in/hr0.0 mm/hr 0.00 in0.0 mm
01:00 PM 86.5°F30.3°C 36.5°F2.5°C 17% 8.1 mph S13.0 kmh S 20.1 mph32.3 kmh 30.03 in1016.9 mb 0.00 in0.0 mm 0.00 in/hr0.0 mm/hr 0.00 in0.0 mm
01:30 PM 87.4°F30.8°C 28.6°F-1.9°C 12% 10.4 mph S16.7 kmh S 17.9 mph28.8 kmh 30.02 in1016.6 mb 0.00 in0.0 mm 0.00 in/hr0.0 mm/hr 0.00 in0.0 mm
02:00 PM 86.9°F30.5°C 35.3°F1.8°C 16% 7.9 mph S12.7 kmh S 16.3 mph26.2 kmh 30.00 in1015.9 mb 0.00 in0.0 mm 0.00 in/hr0.0 mm/hr 0.00 in0.0 mm
02:30 PM 88.0°F31.1°C 31.0°F-0.6°C 13% 7.5 mph S12.1 kmh S 13.4 mph21.6 kmh 29.98 in1015.2 mb 0.00 in0.0 mm 0.00 in/hr0.0 mm/hr 0.00 in0.0 mm
03:00 PM 87.4°F30.8°C 34.1°F1.2°C 15% 8.6 mph SSW13.8 kmh SSW 14.5 mph23.3 kmh 29.96 in1014.6 mb 0.00 in0.0 mm 0.00 in/hr0.0 mm/hr 0.00 in0.0 mm
03:30 PM 84.7°F29.3°C 33.6°F0.9°C 16% 9.9 mph S15.9 kmh S 15.0 mph24.1 kmh 29.95 in1014.2 mb 0.00 in0.0 mm 0.00 in/hr0.0 mm/hr 0.00 in0.0 mm
04:00 PM 86.0°F30.0°C 34.6°F1.4°C 16% 9.4 mph SSE15.1 kmh SSE 17.9 mph28.8 kmh 29.93 in1013.5 mb 0.00 in0.0 mm 0.00 in/hr0.0 mm/hr 0.00 in0.0 mm
04:30 PM 86.0°F30.0°C 33.0°F0.6°C 15% 10.9 mph S17.5 kmh S 18.6 mph29.9 kmh 29.92 in1013.2 mb 0.00 in0.0 mm 0.00 in/hr0.0 mm/hr 0.00 in0.0 mm
05:00 PM 83.1°F28.4°C 33.8°F1.0°C 17% 8.5 mph SSE13.7 kmh SSE 15.0 mph24.1 kmh 29.91 in1012.9 mb 0.00 in0.0 mm 0.00 in/hr0.0 mm/hr 0.00 in0.0 mm
05:30 PM 82.8°F28.2°C 33.5°F0.8°C 17% 9.1 mph S14.6 kmh S 15.7 mph25.3 kmh 29.90 in1012.5 mb 0.00 in0.0 mm 0.00 in/hr0.0 mm/hr 0.00 in0.0 mm
06:00 PM 81.3°F27.4°C 33.7°F0.9°C 18% 10.3 mph S16.6 kmh S 15.4 mph24.8 kmh 29.90 in1012.5 mb 0.00 in0.0 mm 0.00 in/hr0.0 mm/hr 0.00 in0.0 mm
06:30 PM 79.9°F26.6°C 33.9°F1.1°C 19% 7.2 mph S11.6 kmh S 13.2 mph21.2 kmh 29.89 in1012.2 mb 0.00 in0.0 mm 0.00 in/hr0.0 mm/hr 0.00 in0.0 mm
07:00 PM 78.8°F26.0°C 33.0°F0.6°C 19% 6.7 mph S10.8 kmh S 11.2 mph18.0 kmh 29.88 in1011.9 mb 0.00 in0.0 mm 0.00 in/hr0.0 mm/hr 0.00 in0.0 mm
07:30 PM 77.5°F25.3°C 33.3°F0.7°C 20% 7.7 mph SSE12.4 kmh SSE 11.2 mph18.0 kmh 29.88 in1011.9 mb 0.00 in0.0 mm 0.00 in/hr0.0 mm/hr 0.00 in0.0 mm
08:00 PM 75.9°F24.4°C 33.2°F0.7°C 21% 6.7 mph SSE10.8 kmh SSE 11.9 mph19.2 kmh 29.88 in1011.9 mb 0.00 in0.0 mm 0.00 in/hr0.0 mm/hr 0.00 in0.0 mm
08:30 PM 74.5°F23.6°C 32.0°F0.0°C 21% 3.4 mph SSE5.5 kmh SSE 8.7 mph14.0 kmh 29.88 in1011.9 mb 0.00 in0.0 mm 0.00 in/hr0.0 mm/hr 0.00 in0.0 mm
09:00 PM 73.4°F23.0°C 32.2°F0.1°C 22% 3.9 mph SSE6.3 kmh SSE 7.2 mph11.6 kmh 29.88 in1011.9 mb 0.00 in0.0 mm 0.00 in/hr0.0 mm/hr 0.00 in0.0 mm
09:30 PM 72.5°F22.5°C 31.5°F-0.3°C 22% 4.2 mph SSE6.8 kmh SSE 8.5 mph13.7 kmh 29.88 in1011.9 mb 0.00 in0.0 mm 0.00 in/hr0.0 mm/hr 0.00 in0.0 mm
10:00 PM 73.0°F22.8°C 31.9°F-0.1°C 22% 4.9 mph SSE7.9 kmh SSE 8.9 mph14.3 kmh 29.89 in1012.2 mb 0.00 in0.0 mm 0.00 in/hr0.0 mm/hr 0.00 in0.0 mm
10:30 PM 72.1°F22.3°C 31.2°F-0.4°C 22% 4.0 mph S6.4 kmh S 6.9 mph11.1 kmh 29.89 in1012.2 mb 0.00 in0.0 mm 0.00 in/hr0.0 mm/hr 0.00 in0.0 mm
11:00 PM 71.2°F21.8°C 32.6°F0.3°C 24% 4.8 mph SSE7.7 kmh SSE 7.2 mph11.6 kmh 29.88 in1011.9 mb 0.00 in0.0 mm 0.00 in/hr0.0 mm/hr 0.00 in0.0 mm
11:30 PM 70.2°F21.2°C 32.7°F0.4°C 25% 3.2 mph SE5.1 kmh SE 5.6 mph9.0 kmh 29.88 in1011.9 mb 0.00 in0.0 mm 0.00 in/hr0.0 mm/hr 0.00 in0.0 mm